Time;durP1;ratioP1;P1;durP2;ratioP2;P2;SDS_P1;SDS_P2;PMS_P1;PMS_P2;Temp;Humidity;BMP_temperature;BMP_pressure;BME280_temperature;BME280_humidity;BME280_pressure;Samples;Min_cycle;Max_cycle;Signal;HPM_P1;HPM_P2
2022/09/29 00:00:21;;;;;;;1.35;1.25;;;;;;;;;;4532581;28;20038;-57
2022/09/29 00:02:31;;;;;;;1.27;1.17;;;;;;;;;;4532215;28;20681;-56
2022/09/29 00:04:42;;;;;;;1.20;1.10;;;;;;;;;;4531430;28;21761;-56
2022/09/29 00:06:52;;;;;;;1.48;1.38;;;;;;;;;;4531051;28;35352;-59
2022/09/29 00:09:03;;;;;;;1.40;1.30;;;;;;;;;;4532744;28;25287;-57
2022/09/29 00:11:17;;;;;;;2.05;1.50;;;;;;;;;;4532370;28;20076;-56
2022/09/29 00:13:28;;;;;;;1.20;1.10;;;;;;;;;;4533805;28;20068;-56
2022/09/29 00:15:39;;;;;;;1.40;1.30;;;;;;;;;;4529880;28;28298;-56
2022/09/29 00:17:49;;;;;;;1.40;1.30;;;;;;;;;;4533219;28;20490;-56
2022/09/29 00:20:00;;;;;;;1.40;1.30;;;;;;;;;;4530201;28;27646;-56
2022/09/29 00:22:10;;;;;;;1.77;1.50;;;;;;;;;;4533918;28;20045;-56
2022/09/29 00:24:20;;;;;;;1.50;1.30;;;;;;;;;;4532158;28;30200;-56
2022/09/29 00:26:31;;;;;;;1.40;1.30;;;;;;;;;;4530598;28;23640;-57
2022/09/29 00:28:55;;;;;;;1.30;1.20;;;;;;;;;;4514567;28;20037;-57
2022/09/29 00:31:07;;;;;;;1.48;1.33;;;;;;;;;;4518751;28;20059;-57
2022/09/29 00:33:17;;;;;;;1.70;1.60;;;;;;;;;;4532828;28;20032;-56
2022/09/29 00:35:27;;;;;;;1.50;1.40;;;;;;;;;;4531096;28;36497;-57
2022/09/29 00:37:39;;;;;;;1.33;1.23;;;;;;;;;;4512886;28;22713;-57
2022/09/29 00:39:49;;;;;;;1.45;1.35;;;;;;;;;;4531912;28;20128;-57
2022/09/29 00:42:00;;;;;;;1.73;1.48;;;;;;;;;;4530227;28;20032;-57
2022/09/29 00:44:13;;;;;;;1.60;1.50;;;;;;;;;;4534751;28;20081;-57
2022/09/29 00:46:41;;;;;;;1.40;1.30;;;;;;;;;;4531524;28;20043;-57
2022/09/29 00:48:52;;;;;;;;;;;;;;;;;;4532587;28;20877;-57
2022/09/29 00:51:02;;;;;;;1.38;1.20;;;;;;;;;;4529821;28;19973;-56
2022/09/29 00:53:14;;;;;;;2.25;1.10;;;;;;;;;;4529699;28;20133;-57
2022/09/29 00:55:35;;;;;;;1.40;1.30;;;;;;;;;;4533814;28;20034;-57
2022/09/29 00:57:49;;;;;;;1.45;1.35;;;;;;;;;;4512997;28;20559;-58
2022/09/29 01:00:07;;;;;;;1.50;1.40;;;;;;;;;;4531673;28;20065;-57
2022/09/29 01:02:19;;;;;;;1.33;1.23;;;;;;;;;;4532869;28;20033;-57
2022/09/29 01:04:29;;;;;;;1.50;1.40;;;;;;;;;;4529460;28;20037;-57
2022/09/29 01:06:45;;;;;;;1.50;1.40;;;;;;;;;;4532310;28;40587;-57
2022/09/29 01:09:00;;;;;;;1.70;1.60;;;;;;;;;;4532471;28;20044;-57
2022/09/29 01:11:11;;;;;;;1.58;1.48;;;;;;;;;;4498420;28;20135;-56
2022/09/29 01:13:22;;;;;;;1.58;1.48;;;;;;;;;;4529014;28;20067;-57
2022/09/29 01:15:33;;;;;;;1.73;1.50;;;;;;;;;;4513376;28;20042;-56
2022/09/29 01:17:46;;;;;;;1.60;1.50;;;;;;;;;;4531672;28;20086;-57
2022/09/29 01:20:25;;;;;;;1.92;1.73;;;;;;;;;;4530112;28;20052;-56
2022/09/29 01:22:38;;;;;;;1.60;1.50;;;;;;;;;;4530589;28;20060;-56
2022/09/29 01:25:07;;;;;;;1.60;1.50;;;;;;;;;;4530227;28;20036;-57
2022/09/29 01:27:27;;;;;;;1.60;1.50;;;;;;;;;;4530993;28;20037;-56
2022/09/29 01:30:06;;;;;;;1.52;1.40;;;;;;;;;;4533556;28;20048;-57
2022/09/29 01:32:23;;;;;;;1.60;1.50;;;;;;;;;;4531502;28;20137;-57
2022/09/29 01:34:37;;;;;;;;;;;;;;;;;;4531839;28;20041;-57
2022/09/29 01:36:57;;;;;;;1.65;1.55;;;;;;;;;;4513383;28;20369;-57
2022/09/29 01:39:30;;;;;;;1.98;1.40;;;;;;;;;;4528416;28;20048;-57
2022/09/29 01:41:47;;;;;;;1.50;1.33;;;;;;;;;;4532126;28;20497;-58
2022/09/29 01:44:14;;;;;;;1.80;1.50;;;;;;;;;;4511738;28;20045;-58
2022/09/29 01:46:28;;;;;;;1.60;1.50;;;;;;;;;;4511801;28;20052;-56
2022/09/29 01:48:43;;;;;;;1.48;1.38;;;;;;;;;;4516159;28;20124;-57
2022/09/29 01:50:56;;;;;;;2.10;1.55;;;;;;;;;;4513066;28;20033;-56
2022/09/29 01:53:13;;;;;;;1.92;1.40;;;;;;;;;;4513954;28;20397;-57
2022/09/29 01:55:28;;;;;;;1.50;1.40;;;;;;;;;;4531604;28;20160;-59
2022/09/29 01:57:43;;;;;;;1.40;1.30;;;;;;;;;;4529529;28;20034;-57
2022/09/29 02:00:09;;;;;;;1.50;1.40;;;;;;;;;;4510759;28;20037;-57
2022/09/29 02:02:34;;;;;;;1.42;1.33;;;;;;;;;;4522252;28;20124;-57
2022/09/29 02:04:53;;;;;;;1.50;1.40;;;;;;;;;;4536273;28;20048;-56
2022/09/29 02:07:07;;;;;;;1.85;1.40;;;;;;;;;;4534106;28;20614;-56
2022/09/29 02:09:22;;;;;;;1.38;1.25;;;;;;;;;;4530013;28;20770;-56
2022/09/29 02:11:35;;;;;;;1.52;1.40;;;;;;;;;;4532465;28;20030;-56
2022/09/29 02:14:01;;;;;;;1.35;1.25;;;;;;;;;;4535283;28;20091;-56
2022/09/29 02:16:15;;;;;;;1.30;1.20;;;;;;;;;;4524775;28;20028;-56
2022/09/29 02:18:30;;;;;;;1.17;1.10;;;;;;;;;;4530065;28;20049;-59
2022/09/29 02:20:41;;;;;;;1.33;1.20;;;;;;;;;;4518728;28;20114;-57
2022/09/29 02:22:51;;;;;;;1.27;1.13;;;;;;;;;;4515811;28;33321;-57
2022/09/29 02:25:02;;;;;;;1.30;1.20;;;;;;;;;;4517058;28;36590;-57
2022/09/29 02:27:13;;;;;;;1.30;1.20;;;;;;;;;;4536447;28;20068;-56
2022/09/29 02:29:23;;;;;;;1.23;1.13;;;;;;;;;;4533435;28;20076;-57
2022/09/29 02:31:35;;;;;;;1.42;1.20;;;;;;;;;;4532440;28;20021;-57
2022/09/29 02:33:45;;;;;;;1.30;1.20;;;;;;;;;;4532557;28;20040;-57
2022/09/29 02:36:19;;;;;;;1.25;1.15;;;;;;;;;;4530269;28;42572;-56
2022/09/29 02:38:40;;;;;;;1.25;0.98;;;;;;;;;;4501738;28;20046;-57
2022/09/29 02:41:04;;;;;;;1.77;1.20;;;;;;;;;;4533104;28;20064;-57
2022/09/29 02:43:53;;;;;;;1.30;1.20;;;;;;;;;;4531649;28;20077;-56
2022/09/29 02:46:27;;;;;;;1.20;1.10;;;;;;;;;;4536035;28;20116;-56
2022/09/29 02:49:16;;;;;;;1.52;1.20;;;;;;;;;;4506426;28;20910;-57
2022/09/29 02:52:10;;;;;;;1.30;1.20;;;;;;;;;;4532896;28;20069;-57
2022/09/29 02:54:36;;;;;;;1.15;1.05;;;;;;;;;;4429044;28;20047;-56
2022/09/29 02:57:20;;;;;;;1.10;1.00;;;;;;;;;;4427385;28;20580;-58
2022/09/29 02:59:53;;;;;;;1.30;1.20;;;;;;;;;;4493795;28;20049;-55
2022/09/29 03:02:03;;;;;;;1.38;1.27;;;;;;;;;;4534162;28;20084;-56
2022/09/29 03:04:13;;;;;;;1.67;1.20;;;;;;;;;;4533633;28;29134;-56
2022/09/29 03:06:24;;;;;;;1.10;1.00;;;;;;;;;;4534082;28;38230;-57
2022/09/29 03:08:34;;;;;;;1.15;1.05;;;;;;;;;;4532630;28;20033;-56
2022/09/29 03:10:44;;;;;;;1.42;1.20;;;;;;;;;;4534540;28;20059;-56
2022/09/29 03:12:55;;;;;;;1.25;1.15;;;;;;;;;;4533014;28;38409;-57
2022/09/29 03:15:07;;;;;;;1.20;1.10;;;;;;;;;;4531920;28;20029;-56
2022/09/29 03:17:17;;;;;;;0.90;0.90;;;;;;;;;;4532955;28;20033;-57
2022/09/29 03:19:28;;;;;;;1.10;1.00;;;;;;;;;;4530269;28;20033;-56
2022/09/29 03:21:38;;;;;;;1.30;1.20;;;;;;;;;;4531455;28;43536;-56
2022/09/29 03:23:49;;;;;;;1.00;1.00;;;;;;;;;;4532120;28;20463;-57
2022/09/29 03:25:59;;;;;;;1.20;1.10;;;;;;;;;;4531477;28;31643;-57
2022/09/29 03:28:09;;;;;;;1.05;0.98;;;;;;;;;;4533963;28;20041;-57
2022/09/29 03:30:22;;;;;;;1.42;1.10;;;;;;;;;;4535198;28;20042;-57
2022/09/29 03:32:32;;;;;;;1.38;1.25;;;;;;;;;;4532389;28;20029;-57
2022/09/29 03:34:42;;;;;;;1.20;1.00;;;;;;;;;;4533049;28;43222;-56
2022/09/29 03:36:53;;;;;;;1.25;1.15;;;;;;;;;;4532862;28;37515;-57
2022/09/29 03:39:03;;;;;;;1.10;1.00;;;;;;;;;;4534560;28;20064;-57
2022/09/29 03:41:14;;;;;;;0.90;0.90;;;;;;;;;;4531895;28;20052;-57
2022/09/29 03:43:25;;;;;;;0.95;0.95;;;;;;;;;;4532163;28;20077;-57
2022/09/29 03:45:35;;;;;;;0.90;0.85;;;;;;;;;;4535074;28;20252;-57
2022/09/29 03:47:45;;;;;;;0.90;0.90;;;;;;;;;;4533100;28;35647;-57
2022/09/29 03:49:56;;;;;;;0.93;0.93;;;;;;;;;;4534355;28;20061;-58
2022/09/29 03:52:06;;;;;;;1.13;1.00;;;;;;;;;;4532647;28;20033;-57
2022/09/29 03:54:17;;;;;;;0.90;0.90;;;;;;;;;;4532954;28;40004;-57
2022/09/29 03:56:27;;;;;;;0.93;0.90;;;;;;;;;;4533477;28;20041;-57
2022/09/29 03:58:38;;;;;;;1.20;1.10;;;;;;;;;;4534524;28;20446;-57
2022/09/29 04:00:48;;;;;;;1.20;1.10;;;;;;;;;;4514868;28;36636;-57
2022/09/29 04:02:59;;;;;;;0.95;0.95;;;;;;;;;;4532333;28;20032;-56
2022/09/29 04:05:09;;;;;;;1.10;1.00;;;;;;;;;;4533529;28;40289;-57
2022/09/29 04:07:19;;;;;;;0.90;0.90;;;;;;;;;;4531199;28;20761;-58
2022/09/29 04:09:30;;;;;;;1.40;0.93;;;;;;;;;;4533486;28;37310;-56
2022/09/29 04:11:40;;;;;;;1.10;1.00;;;;;;;;;;4532940;28;20037;-56
2022/09/29 04:13:51;;;;;;;0.88;0.88;;;;;;;;;;4533511;28;21113;-57
2022/09/29 04:16:03;;;;;;;0.98;0.88;;;;;;;;;;4530912;28;20144;-57
2022/09/29 04:18:14;;;;;;;1.73;1.30;;;;;;;;;;4529458;28;20037;-57
2022/09/29 04:20:25;;;;;;;1.52;1.30;;;;;;;;;;4534701;28;20041;-57
2022/09/29 04:22:35;;;;;;;1.77;1.52;;;;;;;;;;4512810;28;20024;-56
2022/09/29 04:24:47;;;;;;;1.92;1.58;;;;;;;;;;4520181;28;28838;-56
2022/09/29 04:26:57;;;;;;;4.43;1.70;;;;;;;;;;4529193;28;20038;-57
2022/09/29 04:29:07;;;;;;;2.65;1.83;;;;;;;;;;4531158;28;29981;-57
2022/09/29 04:31:18;;;;;;;2.38;1.77;;;;;;;;;;4533466;28;20048;-57
2022/09/29 04:33:28;;;;;;;2.38;1.50;;;;;;;;;;4531254;28;36562;-57
2022/09/29 04:35:39;;;;;;;1.50;1.40;;;;;;;;;;4531763;28;20033;-57
2022/09/29 04:37:53;;;;;;;1.67;1.58;;;;;;;;;;4523085;28;20492;-56
2022/09/29 04:40:04;;;;;;;1.40;1.30;;;;;;;;;;4529888;28;20028;-57
2022/09/29 04:42:15;;;;;;;2.95;2.03;;;;;;;;;;4532040;28;20103;-57
2022/09/29 04:44:26;;;;;;;2.60;1.88;;;;;;;;;;4532516;28;28288;-56
2022/09/29 04:46:36;;;;;;;2.10;1.60;;;;;;;;;;4533325;28;20033;-56
2022/09/29 04:48:46;;;;;;;3.40;1.35;;;;;;;;;;4529631;28;22920;-56
2022/09/29 04:50:57;;;;;;;1.55;1.40;;;;;;;;;;4530407;28;45102;-56
2022/09/29 04:53:09;;;;;;;2.20;2.00;;;;;;;;;;4530343;28;20037;-57
2022/09/29 04:55:19;;;;;;;1.60;1.50;;;;;;;;;;4531048;28;20147;-56
2022/09/29 04:57:29;;;;;;;1.50;1.40;;;;;;;;;;4529573;28;20380;-57
2022/09/29 04:59:40;;;;;;;1.70;1.45;;;;;;;;;;4533360;28;20030;-56
2022/09/29 05:01:50;;;;;;;1.42;1.30;;;;;;;;;;4530953;28;20031;-57
2022/09/29 05:04:01;;;;;;;1.77;1.50;;;;;;;;;;4533021;28;20487;-56
2022/09/29 05:06:12;;;;;;;1.42;1.23;;;;;;;;;;4532036;28;20017;-56
2022/09/29 05:08:22;;;;;;;1.55;1.45;;;;;;;;;;4530204;28;20398;-57
2022/09/29 05:10:32;;;;;;;1.42;1.30;;;;;;;;;;4532602;28;29967;-57
2022/09/29 05:12:49;;;;;;;1.95;1.42;;;;;;;;;;4530098;28;32849;-56
2022/09/29 05:15:00;;;;;;;;;;;;;;;;;;4532540;28;20567;-56
2022/09/29 05:17:10;;;;;;;1.60;1.30;;;;;;;;;;4533604;28;20283;-57
2022/09/29 05:19:21;;;;;;;2.03;1.70;;;;;;;;;;4531916;28;20040;-57
2022/09/29 05:21:31;;;;;;;1.95;1.67;;;;;;;;;;4532147;28;22785;-57
2022/09/29 05:23:42;;;;;;;1.65;1.40;;;;;;;;;;4532494;28;20455;-56
2022/09/29 05:25:52;;;;;;;1.50;1.40;;;;;;;;;;4531250;28;20041;-56
2022/09/29 05:28:02;;;;;;;2.53;1.60;;;;;;;;;;4532308;28;20734;-58
2022/09/29 05:30:13;;;;;;;1.50;1.40;;;;;;;;;;4533612;28;23333;-56
2022/09/29 05:32:23;;;;;;;1.50;1.40;;;;;;;;;;4532082;28;36063;-57
2022/09/29 05:34:34;;;;;;;1.92;1.55;;;;;;;;;;4532021;28;20032;-56
2022/09/29 05:36:44;;;;;;;1.83;1.60;;;;;;;;;;4533855;28;32553;-56
2022/09/29 05:38:55;;;;;;;2.00;1.80;;;;;;;;;;4533386;28;20672;-56
2022/09/29 05:41:09;;;;;;;2.55;1.70;;;;;;;;;;4532532;28;20510;-57
2022/09/29 05:43:19;;;;;;;2.33;1.70;;;;;;;;;;4530195;28;20033;-57
2022/09/29 05:45:30;;;;;;;1.85;1.65;;;;;;;;;;4513982;28;20045;-58
2022/09/29 05:47:42;;;;;;;1.92;1.73;;;;;;;;;;4529812;28;20143;-57
2022/09/29 05:49:52;;;;;;;1.88;1.77;;;;;;;;;;4528331;28;20581;-57
2022/09/29 05:52:03;;;;;;;2.20;1.70;;;;;;;;;;4531895;28;20116;-57
2022/09/29 05:54:13;;;;;;;2.42;1.70;;;;;;;;;;4532851;28;20080;-57
2022/09/29 05:56:25;;;;;;;1.90;1.60;;;;;;;;;;4517528;28;20113;-57
2022/09/29 05:58:36;;;;;;;2.00;1.67;;;;;;;;;;4530827;28;20020;-57
2022/09/29 06:00:46;;;;;;;2.55;1.80;;;;;;;;;;4531915;28;20092;-57
2022/09/29 06:02:58;;;;;;;1.92;1.73;;;;;;;;;;4529124;28;20088;-57
2022/09/29 06:05:09;;;;;;;1.80;1.70;;;;;;;;;;4530603;28;20558;-57
2022/09/29 06:07:19;;;;;;;2.05;1.70;;;;;;;;;;4531700;28;20033;-57
2022/09/29 06:09:32;;;;;;;1.60;1.50;;;;;;;;;;4531020;28;21184;-57
2022/09/29 06:11:43;;;;;;;1.98;1.65;;;;;;;;;;4531614;28;20608;-57
2022/09/29 06:13:54;;;;;;;2.08;1.70;;;;;;;;;;4533044;28;42247;-57
2022/09/29 06:16:05;;;;;;;1.98;1.77;;;;;;;;;;4521040;28;20040;-58
2022/09/29 06:18:15;;;;;;;1.80;1.70;;;;;;;;;;4530542;28;20036;-57
2022/09/29 06:20:26;;;;;;;1.92;1.70;;;;;;;;;;4529721;28;20647;-57
2022/09/29 06:22:36;;;;;;;2.58;1.90;;;;;;;;;;4532083;28;20053;-57
2022/09/29 06:24:47;;;;;;;1.70;1.50;;;;;;;;;;4533288;28;20124;-58
2022/09/29 06:26:57;;;;;;;1.95;1.52;;;;;;;;;;4511953;28;29600;-57
2022/09/29 06:29:07;;;;;;;1.80;1.60;;;;;;;;;;4531668;28;20065;-57
2022/09/29 06:31:20;;;;;;;2.65;1.83;;;;;;;;;;4529434;28;20047;-57
2022/09/29 06:33:32;;;;;;;1.60;1.50;;;;;;;;;;4512005;28;20029;-59
2022/09/29 06:38:17;;;;;;;1.98;1.70;;;;;;;;;;4530384;28;20033;-57
2022/09/29 06:40:28;;;;;;;2.03;1.80;;;;;;;;;;4530100;28;20037;-59
2022/09/29 06:42:38;;;;;;;2.58;2.00;;;;;;;;;;4532555;28;20031;-58
2022/09/29 06:44:48;;;;;;;2.03;1.83;;;;;;;;;;4529572;28;39918;-57
2022/09/29 06:46:59;;;;;;;2.10;1.90;;;;;;;;;;4535336;28;20903;-57
2022/09/29 06:49:11;;;;;;;1.80;1.67;;;;;;;;;;4534942;28;20111;-57
2022/09/29 06:51:23;;;;;;;2.28;1.85;;;;;;;;;;4534766;28;20037;-58
2022/09/29 06:53:35;;;;;;;2.00;1.77;;;;;;;;;;4535114;28;20040;-57
2022/09/29 06:55:53;;;;;;;2.50;1.70;;;;;;;;;;4523368;28;20539;-57
2022/09/29 06:58:03;;;;;;;2.10;1.90;;;;;;;;;;4535072;28;20037;-59
2022/09/29 07:00:14;;;;;;;3.10;2.05;;;;;;;;;;4533553;28;20048;-58
2022/09/29 07:02:24;;;;;;;2.17;1.75;;;;;;;;;;4533839;28;20072;-58
2022/09/29 07:04:35;;;;;;;2.83;2.00;;;;;;;;;;4535314;28;20040;-57
2022/09/29 07:06:45;;;;;;;2.10;1.90;;;;;;;;;;4533948;28;20043;-57
2022/09/29 07:08:57;;;;;;;2.95;1.92;;;;;;;;;;4534202;28;20064;-57
2022/09/29 07:11:08;;;;;;;2.53;2.20;;;;;;;;;;4524606;28;20021;-56
2022/09/29 07:13:19;;;;;;;2.47;2.03;;;;;;;;;;4533695;28;20041;-56
2022/09/29 07:15:32;;;;;;;2.63;2.20;;;;;;;;;;4532119;28;20033;-57
2022/09/29 07:17:42;;;;;;;3.30;2.67;;;;;;;;;;4536962;28;20083;-57
2022/09/29 07:19:54;;;;;;;3.17;2.42;;;;;;;;;;4533945;28;20095;-56
2022/09/29 07:22:05;;;;;;;2.63;2.17;;;;;;;;;;4531837;28;20127;-56
2022/09/29 07:24:16;;;;;;;2.85;2.33;;;;;;;;;;4531494;28;20058;-56
2022/09/29 07:26:28;;;;;;;3.00;2.70;;;;;;;;;;4535839;28;20041;-56
2022/09/29 07:28:38;;;;;;;3.70;2.53;;;;;;;;;;4532084;28;20306;-57
2022/09/29 07:31:02;;;;;;;3.42;2.72;;;;;;;;;;4533919;28;20048;-57
2022/09/29 07:33:13;;;;;;;3.35;2.70;;;;;;;;;;4532398;28;20029;-57
2022/09/29 07:35:23;;;;;;;3.42;2.63;;;;;;;;;;4534427;28;20485;-57
2022/09/29 07:37:34;;;;;;;3.22;2.47;;;;;;;;;;4533800;28;21718;-57
2022/09/29 07:39:45;;;;;;;2.58;2.30;;;;;;;;;;4515251;28;20034;-57
2022/09/29 07:41:56;;;;;;;3.50;2.60;;;;;;;;;;4498547;28;20548;-57
2022/09/29 07:44:07;;;;;;;2.90;2.30;;;;;;;;;;4532132;28;20025;-57
2022/09/29 07:46:17;;;;;;;3.72;2.65;;;;;;;;;;4535827;28;20466;-57
2022/09/29 07:48:29;;;;;;;3.10;2.60;;;;;;;;;;4521504;28;20056;-57
2022/09/29 07:50:39;;;;;;;2.70;2.30;;;;;;;;;;4520177;28;20049;-57
2022/09/29 07:52:50;;;;;;;3.15;2.58;;;;;;;;;;4531971;28;20698;-57
2022/09/29 07:55:01;;;;;;;3.03;2.70;;;;;;;;;;4535967;28;20045;-57
2022/09/29 07:57:12;;;;;;;3.10;2.80;;;;;;;;;;4518933;28;20045;-58
2022/09/29 07:59:22;;;;;;;3.05;2.70;;;;;;;;;;4532084;28;20065;-57
2022/09/29 08:01:32;;;;;;;3.10;2.70;;;;;;;;;;4513549;28;20099;-57
2022/09/29 08:03:47;;;;;;;3.88;2.90;;;;;;;;;;4533784;28;20044;-57
2022/09/29 08:05:58;;;;;;;3.15;2.67;;;;;;;;;;4532606;28;20035;-57
2022/09/29 08:08:08;;;;;;;2.72;2.47;;;;;;;;;;4531360;28;20084;-57
2022/09/29 08:10:19;;;;;;;3.20;2.85;;;;;;;;;;4533708;28;20049;-58
2022/09/29 08:12:29;;;;;;;3.90;2.92;;;;;;;;;;4532089;28;20024;-57
2022/09/29 08:14:41;;;;;;;3.97;3.38;;;;;;;;;;4532153;28;20053;-57
2022/09/29 08:16:51;;;;;;;4.20;3.03;;;;;;;;;;4535866;28;20025;-57
2022/09/29 08:19:03;;;;;;;3.45;2.85;;;;;;;;;;4533204;28;21357;-57
2022/09/29 08:21:14;;;;;;;3.55;2.92;;;;;;;;;;4532773;28;20536;-56
2022/09/29 08:23:25;;;;;;;4.15;3.17;;;;;;;;;;4532635;28;21412;-57
2022/09/29 08:25:35;;;;;;;3.88;3.15;;;;;;;;;;4534269;28;20076;-57
2022/09/29 08:27:45;;;;;;;3.90;3.17;;;;;;;;;;4532172;28;20388;-56
2022/09/29 08:29:57;;;;;;;3.20;2.90;;;;;;;;;;4526437;28;20119;-57
2022/09/29 08:32:07;;;;;;;4.18;3.10;;;;;;;;;;4533563;28;20475;-57
2022/09/29 08:34:19;;;;;;;4.85;3.00;;;;;;;;;;4533863;28;20505;-57
2022/09/29 08:36:30;;;;;;;3.97;3.03;;;;;;;;;;4532645;28;20647;-57
2022/09/29 08:38:42;;;;;;;3.88;2.92;;;;;;;;;;4534310;28;20041;-57
2022/09/29 08:40:56;;;;;;;4.57;3.05;;;;;;;;;;4534137;28;20797;-57
2022/09/29 08:43:21;;;;;;;3.30;2.72;;;;;;;;;;4531191;28;20029;-57
2022/09/29 08:45:39;;;;;;;3.13;2.80;;;;;;;;;;4532236;28;20034;-57
2022/09/29 08:47:51;;;;;;;3.58;2.80;;;;;;;;;;4513761;28;20041;-57
2022/09/29 08:50:23;;;;;;;3.88;3.03;;;;;;;;;;4532381;28;20039;-57
2022/09/29 08:52:37;;;;;;;3.95;3.17;;;;;;;;;;4535201;28;20605;-59
2022/09/29 08:54:51;;;;;;;2.90;2.60;;;;;;;;;;4532115;28;20638;-59
2022/09/29 08:57:03;;;;;;;3.70;3.10;;;;;;;;;;4534130;28;20116;-59
2022/09/29 08:59:13;;;;;;;3.42;2.92;;;;;;;;;;4520686;28;22881;-59
2022/09/29 09:01:30;;;;;;;3.50;2.90;;;;;;;;;;4532543;28;29541;-59
2022/09/29 09:04:04;;;;;;;3.78;3.05;;;;;;;;;;4532796;28;20087;-59
2022/09/29 09:06:17;;;;;;;3.53;2.70;;;;;;;;;;4532898;28;20705;-60
2022/09/29 09:08:47;;;;;;;3.85;3.03;;;;;;;;;;4529787;28;20567;-59
2022/09/29 09:11:19;;;;;;;3.10;2.60;;;;;;;;;;4531471;28;20056;-59
2022/09/29 09:13:33;;;;;;;4.05;3.10;;;;;;;;;;4532552;28;20037;-59
2022/09/29 09:15:56;;;;;;;3.75;3.15;;;;;;;;;;4534151;28;20033;-59
2022/09/29 09:18:29;;;;;;;3.60;2.90;;;;;;;;;;4515283;28;20546;-59
2022/09/29 09:21:03;;;;;;;3.38;2.90;;;;;;;;;;4531009;28;20037;-59
2022/09/29 09:23:33;;;;;;;3.78;3.03;;;;;;;;;;4532733;28;20042;-60
2022/09/29 09:25:51;;;;;;;3.28;2.97;;;;;;;;;;4531748;28;20071;-60
2022/09/29 09:28:21;;;;;;;3.90;2.80;;;;;;;;;;4528289;28;20032;-61
2022/09/29 09:30:38;;;;;;;3.60;2.70;;;;;;;;;;4522463;28;20706;-59
2022/09/29 09:32:53;;;;;;;2.63;2.20;;;;;;;;;;4531167;28;20043;-59
2022/09/29 09:35:18;;;;;;;3.10;2.65;;;;;;;;;;4531263;28;20081;-58
2022/09/29 09:37:33;;;;;;;2.95;2.45;;;;;;;;;;4521891;28;20045;-58
2022/09/29 09:39:49;;;;;;;2.60;2.22;;;;;;;;;;4516741;28;21582;-59
2022/09/29 09:42:02;;;;;;;3.20;2.20;;;;;;;;;;4516963;28;20097;-60
2022/09/29 09:44:34;;;;;;;3.00;2.40;;;;;;;;;;4530757;28;20042;-60
2022/09/29 09:46:49;;;;;;;2.50;2.17;;;;;;;;;;4522565;28;20033;-59
2022/09/29 09:49:31;;;;;;;3.13;2.45;;;;;;;;;;4531507;28;20584;-63
2022/09/29 09:51:45;;;;;;;3.30;2.60;;;;;;;;;;4532591;28;20038;-59
2022/09/29 09:54:01;;;;;;;3.47;2.30;;;;;;;;;;4531227;28;20070;-59
2022/09/29 09:56:18;;;;;;;3.47;2.33;;;;;;;;;;4515291;28;20025;-59
2022/09/29 09:58:47;;;;;;;3.35;2.60;;;;;;;;;;4513394;28;20034;-62
2022/09/29 10:01:01;;;;;;;2.97;2.60;;;;;;;;;;4532282;28;20198;-59
2022/09/29 10:03:13;;;;;;;3.13;2.13;;;;;;;;;;4516412;28;20036;-58
2022/09/29 10:05:29;;;;;;;2.53;1.90;;;;;;;;;;4514639;28;20030;-58
2022/09/29 10:07:40;;;;;;;2.25;1.88;;;;;;;;;;4531023;28;20041;-59
2022/09/29 10:09:51;;;;;;;3.25;1.88;;;;;;;;;;4528251;28;20041;-59
2022/09/29 10:12:01;;;;;;;2.03;1.80;;;;;;;;;;4529650;28;21335;-59
2022/09/29 10:14:18;;;;;;;2.30;1.90;;;;;;;;;;4531631;28;20100;-59
2022/09/29 10:16:40;;;;;;;2.40;2.20;;;;;;;;;;4527670;28;20040;-58
2022/09/29 10:18:53;;;;;;;2.40;2.10;;;;;;;;;;4531681;28;20684;-59
2022/09/29 10:21:04;;;;;;;2.50;1.90;;;;;;;;;;4535133;28;20873;-58
2022/09/29 10:23:31;;;;;;;2.30;2.00;;;;;;;;;;4531642;28;20547;-59
2022/09/29 10:25:43;;;;;;;;;;;;;;;;;;4533007;28;20037;-58
2022/09/29 10:27:56;;;;;;;2.40;1.80;;;;;;;;;;4515412;28;19917;-58
2022/09/29 10:30:31;;;;;;;3.47;2.10;;;;;;;;;;4519660;28;20564;-58
2022/09/29 10:32:43;;;;;;;2.50;1.60;;;;;;;;;;4516969;28;20139;-58
2022/09/29 10:35:15;;;;;;;1.90;1.70;;;;;;;;;;4534955;28;20037;-58
2022/09/29 10:37:40;;;;;;;2.03;1.50;;;;;;;;;;4532647;28;20038;-58
2022/09/29 10:40:03;;;;;;;2.50;1.60;;;;;;;;;;4534122;28;20033;-59
2022/09/29 10:42:26;;;;;;;1.95;1.60;;;;;;;;;;4531550;28;20129;-58
2022/09/29 10:44:38;;;;;;;1.83;1.58;;;;;;;;;;4533969;28;20569;-59
2022/09/29 10:46:55;;;;;;;1.40;1.30;;;;;;;;;;4533846;28;20120;-58
2022/09/29 10:49:20;;;;;;;1.90;1.70;;;;;;;;;;4531166;28;20034;-58
2022/09/29 10:51:31;;;;;;;1.52;1.42;;;;;;;;;;4518082;28;20112;-58
2022/09/29 10:53:42;;;;;;;1.40;1.30;;;;;;;;;;4528462;28;34560;-58
2022/09/29 10:55:54;;;;;;;2.42;1.40;;;;;;;;;;4534735;28;20072;-58
2022/09/29 10:58:27;;;;;;;2.10;1.55;;;;;;;;;;4518275;28;20068;-58
2022/09/29 11:00:38;;;;;;;1.65;1.48;;;;;;;;;;4535029;28;20044;-60
2022/09/29 11:02:49;;;;;;;2.10;1.50;;;;;;;;;;4515348;28;20526;-60
2022/09/29 11:05:14;;;;;;;1.77;1.58;;;;;;;;;;4523800;28;30463;-59
2022/09/29 11:07:24;;;;;;;2.58;1.50;;;;;;;;;;4535501;28;20125;-59
2022/09/29 11:09:40;;;;;;;1.30;1.20;;;;;;;;;;4532846;28;20178;-58
2022/09/29 11:11:55;;;;;;;1.50;1.27;;;;;;;;;;4533602;28;20746;-59
2022/09/29 11:14:23;;;;;;;1.13;1.02;;;;;;;;;;4534526;28;20029;-59
2022/09/29 11:16:34;;;;;;;;;;;;;;;;;;4534484;28;20038;-59
2022/09/29 11:18:48;;;;;;;1.10;1.00;;;;;;;;;;4533008;28;19917;-59
2022/09/29 11:21:09;;;;;;;1.48;0.93;;;;;;;;;;4514877;28;20041;-59
2022/09/29 11:23:40;;;;;;;1.00;0.88;;;;;;;;;;4534889;28;20044;-59
2022/09/29 11:25:56;;;;;;;0.98;0.93;;;;;;;;;;4533975;28;20715;-59
2022/09/29 11:28:36;;;;;;;1.52;0.90;;;;;;;;;;4515212;28;20045;-58
2022/09/29 11:31:19;;;;;;;1.00;0.80;;;;;;;;;;4532553;28;20100;-58
2022/09/29 11:33:45;;;;;;;1.63;0.98;;;;;;;;;;4497714;28;20049;-58
2022/09/29 11:36:03;;;;;;;1.17;0.90;;;;;;;;;;4533219;28;20653;-58
2022/09/29 11:38:23;;;;;;;1.52;1.23;;;;;;;;;;4530773;28;20036;-58
2022/09/29 11:40:46;;;;;;;1.13;1.02;;;;;;;;;;4535965;28;20804;-58
2022/09/29 11:43:33;;;;;;;1.10;1.00;;;;;;;;;;4533563;28;20029;-59
2022/09/29 11:46:13;;;;;;;1.13;0.95;;;;;;;;;;4518190;28;20037;-58
2022/09/29 11:48:41;;;;;;;1.00;1.00;;;;;;;;;;4518504;28;20080;-59
2022/09/29 11:51:09;;;;;;;1.17;1.08;;;;;;;;;;4527105;28;20049;-58
2022/09/29 11:53:28;;;;;;;;;;;;;;;;;;4536353;28;20139;-58
2022/09/29 11:55:48;;;;;;;1.35;1.20;;;;;;;;;;4533953;28;19916;-58
2022/09/29 11:58:13;;;;;;;1.27;1.10;;;;;;;;;;4506289;28;20038;-58
2022/09/29 12:00:32;;;;;;;1.45;0.90;;;;;;;;;;4533855;28;20041;-58
2022/09/29 12:03:01;;;;;;;1.63;1.10;;;;;;;;;;4535867;28;20045;-61
2022/09/29 12:05:27;;;;;;;0.88;0.88;;;;;;;;;;4534361;28;20040;-58
2022/09/29 12:07:56;;;;;;;1.35;1.00;;;;;;;;;;4531701;28;20030;-58
2022/09/29 12:10:38;;;;;;;1.02;0.80;;;;;;;;;;4533126;28;20049;-58
2022/09/29 12:12:58;;;;;;;1.35;0.95;;;;;;;;;;4534468;28;20605;-58
2022/09/29 12:15:28;;;;;;;0.80;0.80;;;;;;;;;;4516989;28;20076;-58
2022/09/29 12:17:42;;;;;;;1.00;0.90;;;;;;;;;;4535501;28;20029;-58
2022/09/29 12:20:00;;;;;;;1.00;0.90;;;;;;;;;;4531580;28;20033;-58
2022/09/29 12:22:14;;;;;;;1.00;0.90;;;;;;;;;;4515744;28;20640;-58
2022/09/29 12:24:54;;;;;;;1.00;0.85;;;;;;;;;;4515334;28;20080;-58
2022/09/29 12:27:15;;;;;;;0.80;0.80;;;;;;;;;;4530471;28;20104;-58
2022/09/29 12:29:48;;;;;;;0.95;0.88;;;;;;;;;;4513316;28;20042;-58
2022/09/29 12:32:03;;;;;;;1.02;0.93;;;;;;;;;;4533231;28;20720;-58
2022/09/29 12:34:23;;;;;;;1.02;0.95;;;;;;;;;;4532183;28;20055;-58
2022/09/29 12:36:52;;;;;;;1.00;0.90;;;;;;;;;;4519364;28;20033;-58
2022/09/29 12:39:19;;;;;;;1.00;0.90;;;;;;;;;;4515650;28;20025;-58
2022/09/29 12:41:33;;;;;;;0.98;0.88;;;;;;;;;;4532205;28;20585;-58
2022/09/29 12:43:47;;;;;;;0.70;0.70;;;;;;;;;;4515260;28;20033;-57
2022/09/29 12:46:35;;;;;;;1.10;0.70;;;;;;;;;;4537301;28;20037;-55
2022/09/29 12:49:17;;;;;;;1.02;0.70;;;;;;;;;;4515940;28;20076;-57
2022/09/29 12:51:41;;;;;;;0.68;0.50;;;;;;;;;;4531204;28;20037;-56
2022/09/29 12:54:11;;;;;;;1.63;0.70;;;;;;;;;;4531436;28;20032;-56
2022/09/29 12:56:26;;;;;;;2.28;1.23;;;;;;;;;;4515709;28;20756;-58
2022/09/29 12:58:41;;;;;;;0.60;0.60;;;;;;;;;;4530859;28;20040;-56
2022/09/29 13:00:57;;;;;;;1.77;0.65;;;;;;;;;;4498345;28;20552;-56
2022/09/29 13:03:53;;;;;;;1.40;0.70;;;;;;;;;;4530660;28;20580;-55
2022/09/29 13:06:13;;;;;;;1.00;0.90;;;;;;;;;;4501355;28;20040;-57
2022/09/29 13:08:39;;;;;;;0.77;0.77;;;;;;;;;;4532132;28;20037;-56
2022/09/29 13:10:58;;;;;;;1.00;0.75;;;;;;;;;;4532699;28;20132;-58
2022/09/29 13:13:30;;;;;;;0.70;0.70;;;;;;;;;;4529652;28;20111;-57
2022/09/29 13:15:47;;;;;;;1.10;0.70;;;;;;;;;;4530260;28;20640;-58
2022/09/29 13:18:01;;;;;;;1.15;0.80;;;;;;;;;;4532376;28;20021;-58
2022/09/29 13:20:18;;;;;;;1.15;0.90;;;;;;;;;;4531155;28;20144;-57
2022/09/29 13:22:41;;;;;;;0.70;0.60;;;;;;;;;;4532278;28;20119;-57
2022/09/29 13:25:18;;;;;;;0.93;0.75;;;;;;;;;;4529057;28;20843;-58
2022/09/29 13:27:34;;;;;;;0.80;0.80;;;;;;;;;;4514439;28;20038;-58
2022/09/29 13:29:49;;;;;;;;;;;;;;;;;;4516222;28;20048;-57
2022/09/29 13:32:01;;;;;;;0.80;0.80;;;;;;;;;;4532786;28;19923;-57
2022/09/29 13:34:33;;;;;;;1.25;0.70;;;;;;;;;;4532394;28;20037;-58
2022/09/29 13:36:45;;;;;;;0.80;0.80;;;;;;;;;;4518275;28;20037;-57
2022/09/29 13:38:57;;;;;;;1.45;0.90;;;;;;;;;;4530633;28;20028;-56
2022/09/29 13:41:16;;;;;;;0.90;0.80;;;;;;;;;;4530128;28;21960;-57